LNNPO ENBO-ENBO

Flight info

Callsign LNNPO
Flight time 0h 48m
Altitude 6000
Route VFR CIRCUITS ENBO
Aircraft C172/L-SFG/C

Departure

Time 2026-05-08 13:54
Airport Bodø Airport (ENBO)

Arrival

Time 2026-05-08 14:43
Airport Bodø Airport (ENBO)
Time Latitude Longitude Altitude Speed Heading
2026-05-08 13:47 67.27134 14.35839 35 ft 0 kts 257°
2026-05-08 13:52 67.27125 14.35839 35 ft 6 kts 141°
2026-05-08 13:52 67.27079 14.35944 39 ft 11 kts 146°
2026-05-08 13:52 67.27021 14.36074 43 ft 14 kts 78°
2026-05-08 13:53 67.27042 14.36367 45 ft 16 kts 77°
2026-05-08 13:53 67.27010 14.36482 47 ft 7 kts 168°
2026-05-08 13:53 67.26952 14.36514 49 ft 10 kts 166°
2026-05-08 13:53 67.26904 14.36323 51 ft 29 kts 257°
2026-05-08 13:54 67.26817 14.35339 87 ft 72 kts 258°
2026-05-08 13:54 67.26709 14.34015 252 ft 79 kts 259°
2026-05-08 13:54 67.26576 14.32598 442 ft 80 kts 258°
2026-05-08 13:54 67.26421 14.31229 644 ft 81 kts 234°
2026-05-08 13:55 67.25910 14.30650 796 ft 85 kts 181°
2026-05-08 13:55 67.25314 14.30546 950 ft 87 kts 175°
2026-05-08 13:55 67.24688 14.32505 1120 ft 93 kts 84°
2026-05-08 13:56 67.24749 14.34186 1234 ft 97 kts 78°
2026-05-08 13:56 67.24878 14.35941 1309 ft 101 kts 75°
2026-05-08 13:56 67.25043 14.37739 1380 ft 104 kts 74°
2026-05-08 13:56 67.25209 14.39583 1411 ft 107 kts 77°
2026-05-08 13:57 67.25367 14.41504 1434 ft 109 kts 76°
2026-05-08 13:57 67.25537 14.43390 1417 ft 109 kts 77°
2026-05-08 13:57 67.25698 14.45302 1365 ft 109 kts 73°
2026-05-08 13:57 67.26077 14.46876 1188 ft 103 kts 32°
2026-05-08 13:58 67.26775 14.46892 987 ft 107 kts 335°
2026-05-08 13:58 67.27279 14.45501 710 ft 110 kts 303°
2026-05-08 13:58 67.27512 14.43642 429 ft 109 kts 278°
2026-05-08 13:58 67.27356 14.41839 273 ft 96 kts 262°
2026-05-08 13:59 67.27232 14.40239 148 ft 89 kts 263°
2026-05-08 13:59 67.27104 14.38726 54 ft 79 kts 263°
2026-05-08 13:59 67.26986 14.37357 103 ft 82 kts 259°
2026-05-08 13:59 67.26863 14.35907 280 ft 87 kts 260°
2026-05-08 14:00 67.26735 14.34308 460 ft 93 kts 260°
2026-05-08 14:00 67.26579 14.32681 641 ft 97 kts 256°
2026-05-08 14:00 67.26356 14.31019 822 ft 100 kts 236°
2026-05-08 14:00 67.25745 14.30245 948 ft 104 kts 179°
2026-05-08 14:01 67.25030 14.30199 1072 ft 102 kts 174°
2026-05-08 14:01 67.24332 14.30469 1160 ft 101 kts 158°
2026-05-08 14:01 67.23879 14.31699 1195 ft 99 kts 96°
2026-05-08 14:01 67.23978 14.33461 1223 ft 99 kts 73°
2026-05-08 14:02 67.24198 14.35128 1257 ft 100 kts 67°
2026-05-08 14:02 67.24461 14.36820 1265 ft 102 kts 66°
2026-05-08 14:02 67.24738 14.38529 1282 ft 102 kts 65°
2026-05-08 14:02 67.24988 14.40240 1287 ft 104 kts 71°
2026-05-08 14:03 67.25186 14.42044 1264 ft 106 kts 72°
2026-05-08 14:03 67.25429 14.43863 1207 ft 107 kts 68°
2026-05-08 14:03 67.25800 14.45476 1106 ft 105 kts 37°
2026-05-08 14:03 67.26482 14.45858 900 ft 103 kts 354°
2026-05-08 14:04 67.27113 14.45172 645 ft 94 kts 333°
2026-05-08 14:04 67.27541 14.44099 464 ft 84 kts 286°
2026-05-08 14:04 67.27426 14.42659 322 ft 80 kts 263°
2026-05-08 14:04 67.27316 14.41320 282 ft 73 kts 259°
2026-05-08 14:05 67.27214 14.40055 166 ft 70 kts 264°
2026-05-08 14:05 67.27119 14.38909 53 ft 55 kts 258°
2026-05-08 14:05 67.27005 14.37629 121 ft 83 kts 261°
2026-05-08 14:05 67.26879 14.36109 313 ft 89 kts 258°
2026-05-08 14:06 67.26746 14.34513 504 ft 93 kts 264°
2026-05-08 14:06 67.26625 14.32795 640 ft 101 kts 259°
2026-05-08 14:06 67.26469 14.30980 763 ft 106 kts 257°
2026-05-08 14:06 67.26199 14.29188 887 ft 110 kts 231°
2026-05-08 14:07 67.25515 14.28373 959 ft 112 kts 174°
2026-05-08 14:07 67.24842 14.29137 1021 ft 110 kts 121°
2026-05-08 14:07 67.24653 14.30982 1146 ft 103 kts 91°
2026-05-08 14:07 67.24642 14.32845 1228 ft 105 kts 85°
2026-05-08 14:08 67.24686 14.34726 1322 ft 105 kts 85°
2026-05-08 14:08 67.24722 14.36597 1414 ft 105 kts 84°
2026-05-08 14:08 67.24777 14.38506 1486 ft 107 kts 83°
2026-05-08 14:08 67.24868 14.40402 1543 ft 108 kts 81°
2026-05-08 14:09 67.24972 14.42349 1584 ft 109 kts 81°
2026-05-08 14:09 67.25071 14.44271 1653 ft 108 kts 82°
2026-05-08 14:09 67.25162 14.46219 1697 ft 109 kts 83°
2026-05-08 14:09 67.25198 14.48155 1778 ft 107 kts 93°
2026-05-08 14:10 67.25057 14.50059 1811 ft 109 kts 101°
2026-05-08 14:10 67.24890 14.51969 1863 ft 109 kts 101°
2026-05-08 14:10 67.24727 14.53888 1900 ft 110 kts 101°
2026-05-08 14:10 67.24567 14.55837 1941 ft 111 kts 100°
2026-05-08 14:11 67.24406 14.57766 1997 ft 109 kts 101°
2026-05-08 14:11 67.24229 14.59694 2022 ft 111 kts 102°
2026-05-08 14:11 67.24052 14.61634 2058 ft 110 kts 102°
2026-05-08 14:11 67.23885 14.63556 2055 ft 110 kts 101°
2026-05-08 14:12 67.23724 14.65495 2039 ft 110 kts 102°
2026-05-08 14:12 67.23570 14.67420 2072 ft 107 kts 99°
2026-05-08 14:12 67.23472 14.69352 2049 ft 109 kts 96°
2026-05-08 14:12 67.23375 14.71304 2040 ft 109 kts 97°
2026-05-08 14:13 67.23275 14.73257 2037 ft 110 kts 97°
2026-05-08 14:13 67.23219 14.75217 2032 ft 110 kts 92°
2026-05-08 14:13 67.23216 14.77199 2037 ft 110 kts 89°
2026-05-08 14:13 67.23261 14.79187 2014 ft 111 kts 86°
2026-05-08 14:14 67.23343 14.81172 2026 ft 109 kts 82°
2026-05-08 14:14 67.23445 14.83109 2033 ft 109 kts 84°
2026-05-08 14:14 67.23514 14.85072 2040 ft 109 kts 87°
2026-05-08 14:14 67.23538 14.87045 2032 ft 110 kts 89°
2026-05-08 14:15 67.23560 14.88946 2179 ft 103 kts 89°
2026-05-08 14:15 67.23579 14.90829 2256 ft 105 kts 88°
2026-05-08 14:15 67.23615 14.92697 2365 ft 103 kts 87°
2026-05-08 14:15 67.23659 14.94543 2487 ft 101 kts 86°
2026-05-08 14:16 67.23591 14.96346 2575 ft 102 kts 107°
2026-05-08 14:16 67.23473 14.98109 2707 ft 101 kts 83°
2026-05-08 14:16 67.23864 14.99616 2820 ft 106 kts 34°
2026-05-08 14:16 67.24586 15.00001 2937 ft 110 kts 355°
2026-05-08 14:17 67.25278 14.99168 3029 ft 115 kts 317°
2026-05-08 14:17 67.25687 14.97446 3148 ft 114 kts 279°
2026-05-08 14:17 67.25516 14.95501 3241 ft 110 kts 232°
2026-05-08 14:17 67.24947 14.94321 3357 ft 105 kts 195°
2026-05-08 14:18 67.24234 14.94294 3475 ft 101 kts 154°
2026-05-08 14:18 67.23806 14.95622 3603 ft 98 kts 112°
2026-05-08 14:18 67.23453 14.97115 3711 ft 99 kts 124°
2026-05-08 14:18 67.23117 14.98601 3866 ft 97 kts 112°
2026-05-08 14:19 67.22938 15.00278 4007 ft 96 kts 101°
2026-05-08 14:19 67.22845 15.02001 4152 ft 97 kts 97°
2026-05-08 14:19 67.22787 15.03738 4284 ft 98 kts 94°
2026-05-08 14:19 67.22769 15.05508 4425 ft 99 kts 89°
2026-05-08 14:20 67.22936 15.07263 4538 ft 104 kts 64°
2026-05-08 14:20 67.23400 15.08697 4687 ft 104 kts 45°
2026-05-08 14:20 67.23932 15.09978 4822 ft 105 kts 45°
2026-05-08 14:20 67.24468 15.11263 4943 ft 106 kts 41°
2026-05-08 14:21 67.25065 15.12454 5071 ft 107 kts 37°
2026-05-08 14:21 67.25692 15.13503 5204 ft 108 kts 30°
2026-05-08 14:21 67.26363 15.14356 5333 ft 108 kts 24°
2026-05-08 14:21 67.27081 15.15059 5446 ft 111 kts 18°
2026-05-08 14:22 67.27818 15.15587 5576 ft 110 kts 11°
2026-05-08 14:22 67.28574 15.15818 5696 ft 110 kts 360°
2026-05-08 14:22 67.29348 15.15808 5816 ft 110 kts 357°
2026-05-08 14:22 67.30110 15.15763 5933 ft 111 kts 356°
2026-05-08 14:23 67.30873 15.15441 6029 ft 112 kts 336°
2026-05-08 14:23 67.31486 15.14290 6119 ft 110 kts 300°
2026-05-08 14:23 67.31713 15.12424 6222 ft 105 kts 273°
2026-05-08 14:23 67.31770 15.10593 6364 ft 102 kts 266°
2026-05-08 14:24 67.31745 15.08803 6509 ft 99 kts 260°
2026-05-08 14:24 67.31691 15.06997 6611 ft 100 kts 261°
2026-05-08 14:24 67.31654 15.05219 6746 ft 98 kts 264°
2026-05-08 14:24 67.31644 15.03461 6871 ft 97 kts 263°
2026-05-08 14:25 67.31622 15.01702 6992 ft 98 kts 263°
2026-05-08 14:25 67.31606 14.99976 7140 ft 95 kts 264°
2026-05-08 14:25 67.31583 14.98259 7270 ft 95 kts 262°
2026-05-08 14:25 67.31567 14.96554 7403 ft 95 kts 265°
2026-05-08 14:26 67.31583 14.94814 7515 ft 96 kts 269°
2026-05-08 14:26 67.31624 14.93070 7628 ft 96 kts 269°
2026-05-08 14:26 67.31644 14.91364 7750 ft 95 kts 266°
2026-05-08 14:26 67.31632 14.89643 7861 ft 95 kts 264°
2026-05-08 14:27 67.31604 14.87932 7987 ft 93 kts 263°
2026-05-08 14:27 67.31563 14.86232 8088 ft 94 kts 258°
2026-05-08 14:27 67.31323 14.84662 8196 ft 94 kts 235°
2026-05-08 14:27 67.30834 14.83515 8291 ft 96 kts 214°
2026-05-08 14:28 67.30223 14.82802 8408 ft 96 kts 202°
2026-05-08 14:28 67.29578 14.82334 8504 ft 98 kts 197°
2026-05-08 14:28 67.28912 14.81962 8600 ft 98 kts 193°
2026-05-08 14:28 67.28219 14.81928 8722 ft 99 kts 180°
2026-05-08 14:29 67.27538 14.82281 8826 ft 101 kts 171°
2026-05-08 14:29 67.26859 14.82781 8927 ft 102 kts 169°
2026-05-08 14:29 67.26187 14.83425 9028 ft 104 kts 162°
2026-05-08 14:29 67.25532 14.84197 9135 ft 104 kts 160°
2026-05-08 14:30 67.24890 14.85052 9250 ft 103 kts 158°
2026-05-08 14:30 67.24261 14.85972 9367 ft 105 kts 152°
2026-05-08 14:30 67.23737 14.87305 9476 ft 110 kts 127°
2026-05-08 14:30 67.23405 14.89124 9578 ft 114 kts 108°
2026-05-08 14:31 67.23363 14.91187 9674 ft 115 kts 79°
2026-05-08 14:31 67.23666 14.93028 9790 ft 114 kts 50°
2026-05-08 14:31 67.24220 14.94436 9907 ft 109 kts 24°
2026-05-08 14:32 67.25654 14.95248 10110 ft 100 kts 353°
2026-05-08 14:32 67.26270 14.95328 10402 ft 82 kts 347°
2026-05-08 14:32 67.26816 14.95312 10490 ft 78 kts 343°
2026-05-08 14:32 67.27383 14.95152 10002 ft 99 kts 322°
2026-05-08 14:33 67.27537 14.93457 9234 ft 115 kts 248°
2026-05-08 14:33 67.26891 14.92316 8598 ft 124 kts 190°
2026-05-08 14:33 67.26099 14.92793 8224 ft 116 kts 160°
2026-05-08 14:33 67.25360 14.93048 7709 ft 113 kts 204°
2026-05-08 14:34 67.24990 14.91412 7032 ft 123 kts 275°
2026-05-08 14:34 67.25594 14.89823 6257 ft 139 kts 328°
2026-05-08 14:34 67.26438 14.88729 5504 ft 140 kts 332°
2026-05-08 14:34 67.27100 14.87153 4835 ft 133 kts 287°
2026-05-08 14:35 67.26975 14.84972 4227 ft 125 kts 233°
2026-05-08 14:35 67.26310 14.83692 3634 ft 120 kts 203°
2026-05-08 14:35 67.25581 14.82815 3116 ft 119 kts 207°
2026-05-08 14:35 67.24927 14.81479 2556 ft 123 kts 229°
2026-05-08 14:36 67.24612 14.79458 2192 ft 125 kts 256°
2026-05-08 14:36 67.24475 14.77173 1904 ft 131 kts 263°
2026-05-08 14:36 67.24381 14.74861 1665 ft 128 kts 265°
2026-05-08 14:36 67.24380 14.72591 1463 ft 124 kts 273°
2026-05-08 14:37 67.24442 14.70403 1322 ft 125 kts 275°
2026-05-08 14:37 67.24527 14.68131 1263 ft 124 kts 276°
2026-05-08 14:37 67.24622 14.65956 1268 ft 121 kts 278°
2026-05-08 14:37 67.24772 14.63795 1248 ft 121 kts 284°
2026-05-08 14:38 67.24988 14.61708 1249 ft 120 kts 287°
2026-05-08 14:38 67.25175 14.59588 1238 ft 120 kts 282°
2026-05-08 14:38 67.25326 14.57495 1244 ft 119 kts 282°
2026-05-08 14:38 67.25455 14.55387 1266 ft 119 kts 278°
2026-05-08 14:39 67.25574 14.53266 1243 ft 120 kts 280°
2026-05-08 14:39 67.25716 14.51158 1240 ft 120 kts 281°
2026-05-08 14:39 67.25787 14.48970 1221 ft 120 kts 272°
2026-05-08 14:39 67.25749 14.46846 1260 ft 117 kts 264°
2026-05-08 14:40 67.25622 14.44730 1235 ft 120 kts 260°
2026-05-08 14:40 67.25448 14.42618 1220 ft 121 kts 257°
2026-05-08 14:40 67.25249 14.40527 1215 ft 121 kts 256°
2026-05-08 14:40 67.25011 14.38418 1202 ft 121 kts 252°
2026-05-08 14:41 67.24734 14.36387 1214 ft 120 kts 250°
2026-05-08 14:41 67.24466 14.34342 1203 ft 120 kts 255°
2026-05-08 14:41 67.24355 14.32196 1155 ft 121 kts 274°
2026-05-08 14:41 67.24717 14.30348 1132 ft 114 kts 317°
2026-05-08 14:42 67.25356 14.29442 1003 ft 101 kts 355°
2026-05-08 14:42 67.26012 14.29848 576 ft 98 kts 50°
2026-05-08 14:42 67.26363 14.31190 298 ft 83 kts 75°
2026-05-08 14:42 67.26547 14.32420 153 ft 67 kts 81°
2026-05-08 14:43 67.26667 14.33491 79 ft 55 kts 68°
2026-05-08 14:43 67.26746 14.34434 39 ft 50 kts 71°
2026-05-08 14:43 67.26812 14.35249 50 ft 44 kts 72°
2026-05-08 14:43 67.26871 14.35885 49 ft 18 kts 57°
2026-05-08 14:44 67.26959 14.35934 45 ft 11 kts 346°
2026-05-08 14:44 67.26999 14.35933 42 ft 6 kts 30°
2026-05-08 14:44 67.27049 14.35971 41 ft 9 kts 343°
2026-05-08 14:44 67.27119 14.35930 37 ft 9 kts 347°
2026-05-08 14:45 67.27136 14.35862 35 ft 5 kts 257°
2026-05-08 14:45 67.27134 14.35836 35 ft 0 kts 256°